Time;durP1;ratioP1;P1;durP2;ratioP2;P2;SDS_P1;SDS_P2;PMS_P1;PMS_P2;Temp;Humidity;BMP_temperature;BMP_pressure;BME280_temperature;BME280_humidity;BME280_pressure;Samples;Min_cycle;Max_cycle;Signal;HPM_P1;HPM_P2
2023/02/10 00:01:55;;;;;;;54.90;29.73;;;;;;;-9.35;100.00;94758.31;5111838;28;20048;-67
2023/02/10 00:04:22;;;;;;;48.90;28.60;;;;;;;-9.31;100.00;94750.69;5111631;28;20040;-67
2023/02/10 00:06:48;;;;;;;36.25;19.48;;;;;;;-9.35;100.00;94748.34;5111687;28;20048;-67
2023/02/10 00:09:15;;;;;;;32.22;18.42;;;;;;;-9.31;100.00;94744.91;5111292;28;20047;-67
2023/02/10 00:11:59;;;;;;;42.45;25.95;;;;;;;-9.57;100.00;94691.84;5111255;28;20051;-67
2023/02/10 00:14:28;;;;;;;30.90;19.05;;;;;;;-9.23;100.00;94744.66;5111191;28;20130;-67
2023/02/10 00:16:56;;;;;;;31.63;18.45;;;;;;;-9.35;100.00;94725.97;5111115;28;20043;-68
2023/02/10 00:19:25;;;;;;;30.60;17.13;;;;;;;-9.35;100.00;94728.44;5111204;28;20140;-68
2023/02/10 00:21:52;;;;;;;29.08;16.35;;;;;;;-9.19;100.00;94746.16;5111299;28;20039;-67
2023/02/10 00:24:19;;;;;;;24.73;15.20;;;;;;;-9.23;100.00;94730.53;5110818;27;20624;-68
2023/02/10 00:26:45;;;;;;;24.90;15.45;;;;;;;-9.30;100.00;94731.59;5110701;28;20048;-68
2023/02/10 00:29:12;;;;;;;28.73;16.58;;;;;;;-9.34;100.00;94735.03;5110683;28;20552;-67
2023/02/10 00:31:41;;;;;;;28.60;16.08;;;;;;;-9.48;100.00;94723.88;5110717;28;20132;-67
2023/02/10 00:34:11;;;;;;;31.42;18.05;;;;;;;-9.55;100.00;94723.25;5110847;28;20044;-67
2023/02/10 00:36:38;;;;;;;34.65;18.85;;;;;;;-9.61;100.00;94712.69;5110546;28;20278;-67
2023/02/10 00:39:05;;;;;;;32.05;18.95;;;;;;;-9.68;100.00;94705.44;5110760;28;20500;-67
2023/02/10 00:41:31;;;;;;;34.85;18.20;;;;;;;-9.69;100.00;94708.78;5110711;28;20044;-67
2023/02/10 00:43:58;;;;;;;35.40;19.27;;;;;;;-9.97;100.00;94672.38;5110502;28;20097;-67
2023/02/10 00:46:25;;;;;;;36.53;20.10;;;;;;;-9.72;100.00;94710.56;5110432;28;20116;-67
2023/02/10 00:48:53;;;;;;;30.00;18.20;;;;;;;-9.72;100.00;94705.59;5110347;28;20044;-67
2023/02/10 00:51:19;;;;;;;32.92;18.58;;;;;;;-9.71;100.00;94707.22;5110375;28;20052;-67
2023/02/10 00:53:49;;;;;;;31.58;18.23;;;;;;;-9.75;100.00;94704.03;5110688;28;20039;-67
2023/02/10 00:56:16;;;;;;;32.83;18.77;;;;;;;-9.79;100.00;94692.53;5110251;28;20044;-68
2023/02/10 00:58:43;;;;;;;31.58;17.67;;;;;;;-9.79;100.00;94702.47;5110730;28;20051;-68
2023/02/10 01:01:10;;;;;;;27.95;16.88;;;;;;;-9.74;100.00;94705.63;5109109;27;20047;-68
2023/02/10 01:03:37;;;;;;;36.13;21.15;;;;;;;-9.81;100.00;94700.03;5110274;28;20691;-67
2023/02/10 01:06:06;;;;;;;43.70;23.83;;;;;;;-9.87;100.00;94685.31;5109723;28;20043;-68
2023/02/10 01:08:33;;;;;;;42.60;24.65;;;;;;;-9.75;100.00;94690.75;5110418;28;20116;-68
2023/02/10 01:11:20;;;;;;;47.85;26.20;;;;;;;-9.66;100.00;94700.41;5109456;28;20553;-68
2023/02/10 01:13:46;;;;;;;44.15;25.10;;;;;;;-9.70;100.00;94698.88;5110216;28;20100;-68
2023/02/10 01:16:16;;;;;;;38.85;22.85;;;;;;;-9.66;100.00;94698.75;5110346;28;20100;-68
2023/02/10 01:18:44;;;;;;;44.70;24.67;;;;;;;-9.61;100.00;94700.25;5110100;28;20165;-68
2023/02/10 01:21:14;;;;;;;42.67;26.10;;;;;;;-9.58;100.00;94695.19;5110301;28;20465;-68
2023/02/10 01:23:41;;;;;;;45.60;25.98;;;;;;;-9.56;100.00;94694.28;5109320;28;20449;-68
2023/02/10 01:26:09;;;;;;;47.53;27.30;;;;;;;-9.43;100.00;94694.69;5109933;28;20044;-68
2023/02/10 01:28:36;;;;;;;44.15;26.52;;;;;;;-9.34;100.00;94691.06;5109670;28;20393;-68
2023/02/10 01:31:06;;;;;;;46.03;27.10;;;;;;;-9.40;100.00;94694.56;5109717;28;20047;-67
2023/02/10 01:33:33;;;;;;;45.03;25.50;;;;;;;-9.58;100.00;94696.00;5109548;28;20500;-68
2023/02/10 01:36:04;;;;;;;44.22;26.08;;;;;;;-9.58;100.00;94692.72;5109515;28;20093;-68
2023/02/10 01:38:32;;;;;;;35.08;20.95;;;;;;;-9.68;100.00;94690.50;5109395;28;20083;-68
2023/02/10 01:40:59;;;;;;;37.72;21.35;;;;;;;-9.76;100.00;94689.16;5109909;28;20100;-68
2023/02/10 01:43:26;;;;;;;31.70;19.92;;;;;;;-9.72;100.00;94688.19;5109753;28;20043;-68
2023/02/10 01:45:52;;;;;;;35.25;20.83;;;;;;;-9.75;100.00;94690.75;5109815;28;20442;-68
2023/02/10 01:48:20;;;;;;;34.10;21.23;;;;;;;-9.82;100.00;94682.72;5109728;28;20092;-68
2023/02/10 01:50:52;;;;;;;31.65;19.92;;;;;;;-9.84;100.00;94677.78;5109909;28;20343;-68
2023/02/10 01:53:20;;;;;;;33.65;20.75;;;;;;;-9.86;100.00;94684.44;5109187;28;20120;-68
2023/02/10 01:55:52;;;;;;;30.92;18.55;;;;;;;-9.90;100.00;94680.47;5109600;28;20051;-68
2023/02/10 01:58:24;;;;;;;32.67;18.25;;;;;;;-9.98;100.00;94684.84;5109247;28;20093;-68
2023/02/10 02:00:51;;;;;;;34.78;20.90;;;;;;;-9.99;100.00;94685.72;5109495;28;20556;-68
2023/02/10 02:03:17;;;;;;;29.17;17.60;;;;;;;-10.01;100.00;94675.03;5109293;28;20100;-68
2023/02/10 02:05:45;;;;;;;33.20;19.98;;;;;;;-10.02;100.00;94679.16;5109086;28;20564;-68
2023/02/10 02:08:16;;;;;;;38.13;21.30;;;;;;;-10.02;100.00;94671.72;5109211;28;20100;-68
2023/02/10 02:10:57;;;;;;;40.35;21.85;;;;;;;-9.95;100.00;94670.66;5109585;28;20089;-68
2023/02/10 02:13:34;;;;;;;39.78;24.83;;;;;;;-9.99;100.00;94669.16;5109869;28;20044;-68
2023/02/10 02:16:09;;;;;;;47.15;27.55;;;;;;;-9.98;100.00;94664.97;5109157;28;20040;-68
2023/02/10 02:18:46;;;;;;;46.75;26.23;;;;;;;-10.03;100.00;94666.78;5108907;28;20055;-68
2023/02/10 02:21:51;;;;;;;33.92;20.73;;;;;;;-10.12;100.00;94668.72;5109317;28;20044;-68
2023/02/10 02:24:30;;;;;;;43.67;24.33;;;;;;;-10.29;100.00;94653.53;5109610;28;20454;-68
2023/02/10 02:27:16;;;;;;;59.05;32.03;;;;;;;-10.21;100.00;94661.53;5109436;28;20111;-68
2023/02/10 02:30:21;;;;;;;70.72;37.35;;;;;;;-10.26;100.00;94664.19;5096074;28;20056;-68
2023/02/10 02:32:54;;;;;;;41.53;23.65;;;;;;;-10.37;100.00;94669.47;5099499;28;20048;-68
2023/02/10 02:35:27;;;;;;;39.72;22.65;;;;;;;-10.36;100.00;94665.31;5109046;28;20052;-68
2023/02/10 02:37:55;;;;;;;37.38;21.80;;;;;;;-10.35;100.00;94659.47;5108957;28;20047;-68
2023/02/10 02:40:22;;;;;;;54.13;28.80;;;;;;;-10.36;100.00;94666.13;5108881;28;20064;-68
2023/02/10 02:42:49;;;;;;;50.63;27.75;;;;;;;-10.36;100.00;94662.84;5109073;28;20639;-68
2023/02/10 02:45:20;;;;;;;47.05;25.42;;;;;;;-10.39;100.00;94645.53;5109040;28;20043;-68
2023/02/10 02:48:01;;;;;;;50.22;27.60;;;;;;;-10.29;100.00;94656.81;5108644;28;20047;-67
2023/02/10 02:50:34;;;;;;;39.95;22.58;;;;;;;-10.26;100.00;94655.91;5108995;28;20318;-67
2023/02/10 02:53:18;;;;;;;39.22;23.20;;;;;;;-10.28;100.00;94655.94;5105888;28;20442;-67
2023/02/10 02:55:54;;;;;;;33.72;20.00;;;;;;;-10.37;100.00;94642.13;5108716;28;20097;-68
2023/02/10 02:58:28;;;;;;;31.92;20.13;;;;;;;-10.39;100.00;94656.28;5103327;28;20101;-68
2023/02/10 03:01:04;;;;;;;36.03;21.20;;;;;;;-10.40;100.00;94658.81;5102507;28;20052;-67
2023/02/10 03:03:33;;;;;;;34.20;21.05;;;;;;;-10.38;100.00;94650.44;5108951;28;20050;-67
2023/02/10 03:06:00;;;;;;;36.10;22.15;;;;;;;-10.44;100.00;94658.13;5108865;28;20056;-67
2023/02/10 03:08:27;;;;;;;33.38;20.65;;;;;;;-10.47;100.00;94651.56;5108675;28;20047;-67
2023/02/10 03:10:53;;;;;;;36.15;23.52;;;;;;;-10.49;100.00;94654.97;5106797;28;20566;-67
2023/02/10 03:13:20;;;;;;;38.50;23.70;;;;;;;-10.53;100.00;94658.38;5108296;28;20040;-67
2023/02/10 03:15:47;;;;;;;38.03;22.90;;;;;;;-10.56;100.00;94653.53;5108852;28;20043;-67
2023/02/10 03:18:14;;;;;;;43.55;24.45;;;;;;;-10.63;100.00;94665.31;5108833;28;20043;-67
2023/02/10 03:20:42;;;;;;;35.10;22.00;;;;;;;-10.85;100.00;94636.16;5108836;28;20093;-67
2023/02/10 03:23:08;;;;;;;33.03;20.00;;;;;;;-10.68;100.00;94662.97;5108814;28;20066;-67
2023/02/10 03:25:35;;;;;;;33.40;20.17;;;;;;;-10.78;100.00;94664.09;5111367;28;20040;-67
2023/02/10 03:28:02;;;;;;;36.92;21.58;;;;;;;-10.81;100.00;94664.16;5112274;28;20051;-67
2023/02/10 03:30:29;;;;;;;39.80;24.73;;;;;;;-10.88;100.00;94656.91;5111968;28;20551;-67
2023/02/10 03:32:56;;;;;;;44.13;27.45;;;;;;;-10.95;100.00;94652.16;5112511;28;20093;-67
2023/02/10 03:35:23;;;;;;;54.55;30.45;;;;;;;-10.95;100.00;94655.47;5111740;28;20510;-67
2023/02/10 03:37:51;;;;;;;53.13;27.40;;;;;;;-10.99;100.00;94648.94;5112301;28;20047;-67
2023/02/10 03:40:18;;;;;;;45.53;26.35;;;;;;;-10.90;100.00;94642.91;5112000;28;20044;-67
2023/02/10 03:42:45;;;;;;;49.25;27.30;;;;;;;-10.78;100.00;94644.22;5112596;27;20051;-67
2023/02/10 03:45:11;;;;;;;43.83;25.10;;;;;;;-10.73;100.00;94640.75;5111772;28;20047;-67
2023/02/10 03:47:38;;;;;;;37.35;22.75;;;;;;;-10.71;100.00;94638.22;5112202;28;20402;-67
2023/02/10 03:50:05;;;;;;;42.03;25.58;;;;;;;-10.73;100.00;94637.47;5111953;28;20092;-68
2023/02/10 03:52:32;;;;;;;51.08;29.10;;;;;;;-10.76;100.00;94637.53;5112029;28;20044;-68
2023/02/10 03:55:00;;;;;;;52.50;27.35;;;;;;;-10.78;100.00;94629.34;5111335;28;20040;-68
2023/02/10 03:57:27;;;;;;;49.30;26.98;;;;;;;-10.76;100.00;94632.56;5111766;28;20039;-68
2023/02/10 03:59:53;;;;;;;38.00;24.00;;;;;;;-10.76;100.00;94625.94;5111572;28;20055;-68
2023/02/10 04:02:20;;;;;;;32.47;20.52;;;;;;;-10.77;100.00;94634.25;5111547;28;20077;-68
2023/02/10 04:04:47;;;;;;;30.77;19.30;;;;;;;-10.84;100.00;94627.03;5084915;28;20089;-68
2023/02/10 04:07:13;;;;;;;33.65;21.13;;;;;;;-10.89;100.00;94627.97;5111198;28;20090;-68
2023/02/10 04:09:40;;;;;;;31.20;19.17;;;;;;;-10.83;100.00;94628.66;5111522;28;20093;-67
2023/02/10 04:12:08;;;;;;;29.35;18.73;;;;;;;-10.82;100.00;94622.84;5111205;28;20105;-67
2023/02/10 04:14:35;;;;;;;31.70;19.45;;;;;;;-10.85;100.00;94620.44;5111450;28;20044;-67
2023/02/10 04:17:02;;;;;;;33.95;20.23;;;;;;;-10.89;100.00;94625.50;5111342;28;20040;-67
2023/02/10 04:19:28;;;;;;;31.92;19.65;;;;;;;-10.85;100.00;94628.69;5111553;28;20097;-67
2023/02/10 04:21:55;;;;;;;29.42;18.30;;;;;;;-10.95;100.00;94620.72;5110901;28;20088;-67
2023/02/10 04:24:22;;;;;;;33.30;19.35;;;;;;;-10.91;100.00;94619.78;5111374;27;20036;-67
2023/02/10 04:26:49;;;;;;;32.58;20.13;;;;;;;-10.96;100.00;94616.63;5111527;28;20044;-67
2023/02/10 04:29:17;;;;;;;56.03;30.70;;;;;;;-11.02;100.00;94615.09;5111170;28;20121;-67
2023/02/10 04:31:43;;;;;;;39.08;22.88;;;;;;;-11.02;100.00;94617.59;5111050;28;20093;-67
2023/02/10 04:34:10;;;;;;;44.65;24.08;;;;;;;-11.02;100.00;94621.75;5111107;28;20048;-67
2023/02/10 04:36:37;;;;;;;32.83;21.35;;;;;;;-11.06;100.00;94627.66;5110916;28;20097;-67
2023/02/10 04:39:04;;;;;;;29.95;18.75;;;;;;;-11.05;100.00;94617.69;5111021;28;20040;-67
2023/02/10 04:41:30;;;;;;;31.95;21.05;;;;;;;-11.02;100.00;94625.03;5110455;28;20415;-67
2023/02/10 04:43:57;;;;;;;34.28;21.23;;;;;;;-11.06;100.00;94622.69;5110811;28;20089;-67
2023/02/10 04:46:25;;;;;;;31.80;20.15;;;;;;;-11.05;100.00;94625.13;5110616;28;20043;-67
2023/02/10 04:48:52;;;;;;;36.53;23.27;;;;;;;-11.05;100.00;94627.63;5110608;28;20568;-67
2023/02/10 04:51:18;;;;;;;39.03;22.25;;;;;;;-11.06;100.00;94632.63;5107901;27;20302;-68
2023/02/10 04:53:47;;;;;;;33.17;19.17;;;;;;;-11.03;100.00;94639.97;5090280;28;20047;-68
2023/02/10 04:56:13;;;;;;;32.47;20.52;;;;;;;-11.07;100.00;94636.75;5107068;28;20124;-67
2023/02/10 04:58:40;;;;;;;30.80;18.58;;;;;;;-11.10;100.00;94638.50;5110298;28;20044;-67
2023/02/10 05:01:07;;;;;;;27.70;17.63;;;;;;;-11.37;100.00;94598.75;5110303;27;20437;-67
2023/02/10 05:03:35;;;;;;;31.00;16.52;;;;;;;-11.18;100.00;94642.03;5110685;27;20105;-67
2023/02/10 05:06:08;;;;;;;27.63;16.63;;;;;;;-11.36;100.00;94630.16;5110480;28;20035;-67
2023/02/10 05:08:38;;;;;;;24.77;16.27;;;;;;;-11.33;100.00;94643.28;5110285;28;20510;-67
2023/02/10 05:11:05;;;;;;;29.05;18.38;;;;;;;-11.35;100.00;94654.09;5110085;28;20050;-67
2023/02/10 05:13:31;;;;;;;28.58;18.77;;;;;;;-11.36;100.00;94653.28;5110192;28;20499;-67
2023/02/10 05:15:58;;;;;;;28.50;16.77;;;;;;;-11.37;100.00;94653.31;5110116;28;20062;-67
2023/02/10 05:18:25;;;;;;;27.02;15.52;;;;;;;-11.38;100.00;94655.00;5110196;28;20120;-67
2023/02/10 05:20:53;;;;;;;24.67;15.77;;;;;;;-11.37;100.00;94663.22;5110413;28;20039;-67
2023/02/10 05:23:19;;;;;;;24.75;14.77;;;;;;;-11.41;100.00;94670.75;5109684;28;20499;-67
2023/02/10 05:25:47;;;;;;;25.50;14.98;;;;;;;-11.40;100.00;94664.13;5110086;28;20040;-67
2023/02/10 05:28:14;;;;;;;24.60;14.77;;;;;;;-11.44;100.00;94667.56;5109510;28;20048;-67
2023/02/10 05:30:41;;;;;;;26.35;16.27;;;;;;;-11.35;100.00;94671.47;5109289;28;20051;-67
2023/02/10 05:33:08;;;;;;;26.83;18.52;;;;;;;-11.33;100.00;94673.03;5110198;28;20055;-67
2023/02/10 05:35:35;;;;;;;25.77;15.50;;;;;;;-11.35;100.00;94677.22;5110062;28;20044;-67
2023/02/10 05:38:03;;;;;;;26.25;16.85;;;;;;;-11.36;100.00;94675.59;5109818;28;20097;-67
2023/02/10 05:40:30;;;;;;;34.67;21.20;;;;;;;-11.33;100.00;94684.63;5109475;28;20467;-67
2023/02/10 05:42:57;;;;;;;38.47;21.08;;;;;;;-11.57;100.00;94637.31;5109715;28;20132;-67
2023/02/10 05:45:24;;;;;;;33.45;19.92;;;;;;;-11.31;100.00;94681.25;5110089;28;20104;-67
2023/02/10 05:47:51;;;;;;;31.27;19.75;;;;;;;-11.31;100.00;94676.28;5109229;28;20044;-67
2023/02/10 05:50:18;;;;;;;32.00;20.17;;;;;;;-11.27;100.00;94685.28;5109597;28;20047;-67
2023/02/10 05:52:46;;;;;;;35.42;23.17;;;;;;;-11.21;100.00;94684.28;5109947;28;20043;-67
2023/02/10 05:55:14;;;;;;;42.00;23.85;;;;;;;-11.41;100.00;94645.97;5109655;28;20092;-67
2023/02/10 05:57:41;;;;;;;42.92;25.65;;;;;;;-11.13;100.00;94689.03;5109533;28;20044;-67
2023/02/10 06:00:09;;;;;;;43.55;27.63;;;;;;;-11.13;100.00;94689.03;5100800;28;20081;-67
2023/02/10 06:02:36;;;;;;;42.67;26.63;;;;;;;-11.06;100.00;94695.44;5105398;28;20047;-67
2023/02/10 06:05:03;;;;;;;43.38;27.50;;;;;;;-10.99;100.00;94700.28;5109556;28;20096;-67
2023/02/10 06:07:29;;;;;;;45.67;26.27;;;;;;;-11.00;100.00;94696.97;5109183;28;20048;-67
2023/02/10 06:09:56;;;;;;;40.47;25.15;;;;;;;-10.95;100.00;94701.78;5109534;28;20044;-67
2023/02/10 06:12:24;;;;;;;42.42;24.90;;;;;;;-10.91;100.00;94705.81;5109164;28;20055;-67
2023/02/10 06:14:51;;;;;;;39.28;23.88;;;;;;;-10.83;100.00;94708.09;5109496;28;20453;-67
2023/02/10 06:17:18;;;;;;;43.03;24.98;;;;;;;-10.74;100.00;94716.09;5109099;28;20040;-67
2023/02/10 06:19:45;;;;;;;39.60;25.88;;;;;;;-10.67;100.00;94713.44;5109633;28;20048;-67
2023/02/10 06:22:11;;;;;;;39.88;24.10;;;;;;;-10.62;100.00;94707.50;5108847;28;20044;-67
2023/02/10 06:24:38;;;;;;;41.83;25.65;;;;;;;-10.50;100.00;94720.41;5109527;28;20430;-67
2023/02/10 06:27:05;;;;;;;43.63;26.73;;;;;;;-10.40;100.00;94715.94;5109439;28;20051;-67
2023/02/10 06:29:33;;;;;;;39.97;24.92;;;;;;;-10.29;100.00;94720.59;5109132;28;20044;-67
2023/02/10 06:32:00;;;;;;;44.33;26.70;;;;;;;-10.19;100.00;94721.94;5108571;28;20478;-67
2023/02/10 06:34:26;;;;;;;50.67;30.27;;;;;;;-10.14;100.00;94721.81;5109611;28;20047;-67
2023/02/10 06:36:53;;;;;;;48.20;29.90;;;;;;;-10.08;100.00;94726.59;5108813;28;20039;-67
2023/02/10 06:39:20;;;;;;;50.03;29.75;;;;;;;-9.96;100.00;94725.41;5109250;28;20075;-68
2023/02/10 06:41:47;;;;;;;60.00;38.65;;;;;;;-9.91;100.00;94722.78;5109081;28;20074;-68
2023/02/10 06:44:13;;;;;;;82.88;49.67;;;;;;;-9.80;100.00;94725.72;5109393;28;20047;-68
2023/02/10 06:46:41;;;;;;;95.25;54.33;;;;;;;-9.71;100.00;94719.66;5108611;28;20044;-68
2023/02/10 06:49:08;;;;;;;98.93;57.80;;;;;;;-9.59;100.00;94728.41;5109348;28;20044;-68
2023/02/10 06:51:35;;;;;;;102.22;60.45;;;;;;;-9.54;100.00;94726.56;5108894;28;20043;-68
2023/02/10 06:54:01;;;;;;;98.25;57.78;;;;;;;-9.47;100.00;94734.63;5109099;28;20100;-68
2023/02/10 06:56:28;;;;;;;107.93;64.82;;;;;;;-9.36;100.00;94732.59;5109253;28;20048;-67
2023/02/10 06:58:55;;;;;;;112.25;63.78;;;;;;;-9.19;100.00;94733.72;5107147;28;20499;-67
2023/02/10 07:01:21;;;;;;;139.65;82.05;;;;;;;-9.03;100.00;94737.31;5096634;28;20475;-67
2023/02/10 07:03:49;;;;;;;128.30;77.85;;;;;;;-8.92;100.00;94739.44;5111588;28;20096;-67
2023/02/10 07:06:18;;;;;;;138.38;80.13;;;;;;;-8.77;100.00;94738.09;5111711;28;20460;-67
2023/02/10 07:08:44;;;;;;;126.32;74.78;;;;;;;-8.59;100.00;94738.28;5105378;28;20054;-67
2023/02/10 07:11:11;;;;;;;132.13;77.97;;;;;;;-8.46;100.00;94734.44;5112727;28;20400;-67
2023/02/10 07:13:38;;;;;;;121.85;73.40;;;;;;;-8.29;100.00;94732.22;5112476;28;20047;-67
2023/02/10 07:16:05;;;;;;;128.57;76.13;;;;;;;-8.12;100.00;94734.88;5112267;28;20040;-67
2023/02/10 07:18:32;;;;;;;130.27;76.95;;;;;;;-7.93;100.00;94734.16;5112405;28;20093;-67
2023/02/10 07:21:00;;;;;;;127.88;73.28;;;;;;;-7.75;100.00;94732.63;5112183;28;20048;-67
2023/02/10 07:23:26;;;;;;;126.72;74.97;;;;;;;-7.56;100.00;94731.88;5112182;28;20043;-67
2023/02/10 07:25:53;;;;;;;129.52;73.25;;;;;;;-7.39;100.00;94731.22;5097615;28;20101;-67
2023/02/10 07:28:20;;;;;;;120.85;72.50;;;;;;;-7.25;100.00;94728.16;5106082;28;20097;-67
2023/02/10 07:30:46;;;;;;;107.05;64.78;;;;;;;-7.06;100.00;94730.69;5112123;28;20495;-67
2023/02/10 07:33:13;;;;;;;114.38;64.57;;;;;;;-7.05;100.00;94717.31;5112374;28;20509;-67
2023/02/10 07:35:40;;;;;;;99.75;59.22;;;;;;;-6.86;100.00;94719.84;5111998;28;20048;-67
2023/02/10 07:38:08;;;;;;;112.93;65.70;;;;;;;-6.71;100.00;94718.38;5112262;28;20109;-67
2023/02/10 07:40:34;;;;;;;115.97;70.20;;;;;;;-6.57;100.00;94725.25;5112250;28;20104;-67
2023/02/10 07:43:01;;;;;;;121.38;70.80;;;;;;;-6.39;100.00;94712.03;5111772;28;20446;-67
2023/02/10 07:45:30;;;;;;;116.93;68.10;;;;;;;-6.21;100.00;94716.19;5112057;28;20085;-68
2023/02/10 07:47:57;;;;;;;105.25;61.60;;;;;;;-6.02;100.00;94712.03;5111711;28;20043;-68
2023/02/10 07:50:24;;;;;;;81.47;46.80;;;;;;;-5.78;100.00;94713.34;5112051;27;20048;-68
2023/02/10 07:52:50;;;;;;;85.30;49.53;;;;;;;-5.62;100.00;94720.13;5111678;28;20051;-68
2023/02/10 07:55:19;;;;;;;68.07;39.90;;;;;;;-5.53;100.00;94717.19;5111536;28;20039;-68
2023/02/10 07:57:45;;;;;;;64.05;40.72;;;;;;;-5.37;100.00;94714.75;5111575;28;20097;-68
2023/02/10 08:00:14;;;;;;;83.57;47.42;;;;;;;-5.30;97.17;94709.44;5111204;28;20124;-68
2023/02/10 08:02:41;;;;;;;85.00;46.78;;;;;;;-5.30;98.31;94711.94;5110897;28;20048;-68
2023/02/10 08:05:07;;;;;;;111.70;61.58;;;;;;;-5.16;98.80;94719.59;5111203;28;20036;-68
2023/02/10 08:07:34;;;;;;;73.25;42.45;;;;;;;-5.41;95.81;94730.81;5111324;27;20043;-68
2023/02/10 08:10:01;;;;;;;74.13;41.05;;;;;;;-5.46;98.12;94720.19;5110903;28;20035;-68
2023/02/10 08:12:29;;;;;;;59.58;32.20;;;;;;;-5.43;100.00;94716.72;5111032;28;20097;-68
2023/02/10 08:14:56;;;;;;;45.05;25.27;;;;;;;-5.34;100.00;94713.78;5111603;27;20055;-68
2023/02/10 08:17:22;;;;;;;47.15;24.48;;;;;;;-5.54;99.65;94708.06;5111070;28;20043;-68
2023/02/10 08:19:49;;;;;;;49.25;24.33;;;;;;;-5.73;99.77;94714.81;5111166;28;20093;-68
2023/02/10 08:22:16;;;;;;;41.47;24.17;;;;;;;-5.57;100.00;94715.72;5111309;28;20393;-68
2023/02/10 08:24:43;;;;;;;42.88;25.23;;;;;;;-5.34;100.00;94713.78;5111032;28;20052;-68
2023/02/10 08:27:10;;;;;;;51.30;27.15;;;;;;;-5.09;100.00;94715.09;5111045;28;20424;-68
2023/02/10 08:29:38;;;;;;;71.70;37.38;;;;;;;-5.09;100.00;94707.56;5111213;28;20048;-68
2023/02/10 08:32:05;;;;;;;73.93;37.03;;;;;;;-4.93;100.00;94701.78;5110472;28;20545;-68
2023/02/10 08:34:31;;;;;;;69.53;37.15;;;;;;;-4.87;99.61;94706.47;5111221;28;20044;-68
2023/02/10 08:36:58;;;;;;;74.72;38.63;;;;;;;-4.86;100.00;94706.41;5110507;28;20039;-68
2023/02/10 08:39:25;;;;;;;75.38;36.35;;;;;;;-4.64;100.00;94714.53;5110731;28;20140;-68
2023/02/10 08:41:51;;;;;;;64.47;30.25;;;;;;;-4.37;100.00;94714.78;5110804;28;20047;-68
2023/02/10 08:44:18;;;;;;;53.13;28.30;;;;;;;-4.51;94.89;94707.16;5110710;28;20120;-68
2023/02/10 08:46:46;;;;;;;51.95;27.65;;;;;;;-4.14;100.00;94712.75;5110578;28;20039;-68
2023/02/10 08:49:13;;;;;;;43.60;24.42;;;;;;;-4.18;94.77;94701.25;5110933;28;20051;-68
2023/02/10 08:51:40;;;;;;;47.13;25.83;;;;;;;-4.35;92.04;94713.00;5110178;28;20048;-68
2023/02/10 08:54:07;;;;;;;41.40;21.70;;;;;;;-4.37;89.44;94714.78;5110643;28;20047;-68
2023/02/10 08:56:33;;;;;;;35.58;18.23;;;;;;;-4.47;89.01;94706.13;5110684;28;20047;-68
2023/02/10 08:59:00;;;;;;;38.20;19.90;;;;;;;-4.35;87.25;94707.97;5110226;28;20073;-68
2023/02/10 09:01:27;;;;;;;37.70;23.90;;;;;;;-4.21;87.96;94707.22;5110267;28;20044;-68
2023/02/10 09:03:56;;;;;;;32.60;17.30;;;;;;;-4.13;89.98;94706.81;5110512;28;20100;-68
2023/02/10 09:06:25;;;;;;;38.85;24.10;;;;;;;-4.30;85.67;94703.50;5110163;28;20039;-68
2023/02/10 09:08:53;;;;;;;35.50;18.85;;;;;;;-4.41;85.81;94700.78;5110174;28;20047;-68
2023/02/10 09:11:22;;;;;;;32.55;19.33;;;;;;;-4.36;87.66;94698.03;5110075;28;20134;-68
2023/02/10 09:13:49;;;;;;;31.52;17.38;;;;;;;-4.31;89.23;94701.09;5110025;28;20122;-68
2023/02/10 09:16:15;;;;;;;36.17;20.90;;;;;;;-4.17;89.16;94695.34;5110360;28;20467;-68
2023/02/10 09:18:42;;;;;;;40.88;22.35;;;;;;;-4.15;89.90;94698.59;5109934;28;20052;-68
2023/02/10 09:21:11;;;;;;;41.80;23.00;;;;;;;-3.94;90.38;94696.59;5109805;28;20449;-68
2023/02/10 09:23:38;;;;;;;42.55;23.30;;;;;;;-3.73;93.07;94675.41;5108933;28;20093;-68
2023/02/10 09:26:05;;;;;;;38.17;22.13;;;;;;;-3.77;87.52;94695.69;5110265;28;20085;-68
2023/02/10 09:28:31;;;;;;;46.10;23.25;;;;;;;-3.55;84.95;94699.50;5109721;28;20056;-68
2023/02/10 09:30:58;;;;;;;45.45;21.85;;;;;;;-3.45;86.65;94694.75;5110152;28;20040;-68
2023/02/10 09:33:25;;;;;;;44.17;22.65;;;;;;;-3.09;92.28;94680.97;5109881;28;20052;-68
2023/02/10 09:35:51;;;;;;;29.52;17.38;;;;;;;-2.81;86.55;94681.06;5109679;28;20066;-68
2023/02/10 09:38:20;;;;;;;39.70;22.15;;;;;;;-2.69;82.88;94682.03;5109803;28;20043;-68
2023/02/10 09:40:55;;;;;;;37.22;21.35;;;;;;;-2.66;84.41;94676.81;5110108;28;20408;-68
2023/02/10 09:43:43;;;;;;;45.85;21.67;;;;;;;-2.50;86.46;94671.66;5109656;28;20087;-68
2023/02/10 09:46:16;;;;;;;44.72;22.15;;;;;;;-2.30;85.65;94670.44;5109651;28;20096;-68
2023/02/10 09:48:57;;;;;;;44.75;17.30;;;;;;;-2.16;87.31;94659.53;5101256;28;20048;-68
2023/02/10 09:51:38;;;;;;;52.08;18.80;;;;;;;-1.94;86.98;94668.25;5107225;28;20466;-68
2023/02/10 09:54:10;;;;;;;50.15;17.73;;;;;;;-1.72;91.34;94671.94;5109555;28;20063;-68
2023/02/10 09:56:38;;;;;;;57.15;23.23;;;;;;;-1.76;81.14;94671.31;5083696;28;20052;-68
2023/02/10 09:59:07;;;;;;;40.35;14.43;;;;;;;-1.97;81.98;94653.34;5109196;28;20044;-68
2023/02/10 10:01:38;;;;;;;42.97;15.93;;;;;;;-1.63;85.36;94665.50;5109431;28;20047;-68
2023/02/10 10:04:09;;;;;;;52.22;22.13;;;;;;;-1.52;84.36;94662.31;5109283;28;20077;-68
2023/02/10 10:06:38;;;;;;;49.25;19.75;;;;;;;-1.88;77.92;94649.44;5109395;28;20048;-68
2023/02/10 10:09:22;;;;;;;44.63;16.95;;;;;;;-1.98;80.90;94646.72;5109255;28;20548;-68
2023/02/10 10:11:51;;;;;;;46.55;14.75;;;;;;;-2.08;78.00;94648.19;5109561;28;20419;-68
2023/02/10 10:14:21;;;;;;;48.42;16.63;;;;;;;-1.99;79.48;94647.59;5109301;28;20097;-68
2023/02/10 10:17:10;;;;;;;41.50;17.10;;;;;;;-1.93;81.91;94642.19;5109614;28;20047;-68
2023/02/10 10:19:53;;;;;;;38.55;14.23;;;;;;;-1.90;80.70;94636.16;5089248;28;20044;-68
2023/02/10 10:22:35;;;;;;;34.90;11.90;;;;;;;-1.84;73.57;94634.94;5109211;28;20112;-68
2023/02/10 10:25:21;;;;;;;29.73;12.93;;;;;;;-1.78;72.45;94639.56;5109049;28;20461;-68
2023/02/10 10:27:53;;;;;;;;;;;;;;;-1.88;76.30;94632.63;5110117;28;20105;-68
2023/02/10 10:30:27;;;;;;;25.38;11.98;;;;;;;-2.06;71.90;94624.53;5108462;28;19988;-68
2023/02/10 10:32:57;;;;;;;39.25;18.30;;;;;;;-1.85;75.80;94623.25;5109625;28;20052;-68
2023/02/10 10:35:28;;;;;;;33.97;16.15;;;;;;;-1.63;80.25;94617.63;5099879;28;20048;-68
2023/02/10 10:37:56;;;;;;;31.15;12.55;;;;;;;-1.54;78.75;94617.03;5113228;28;20052;-68
2023/02/10 10:40:28;;;;;;;34.47;17.63;;;;;;;-1.34;77.30;94619.97;5112993;28;20048;-68
2023/02/10 10:42:59;;;;;;;34.40;17.17;;;;;;;-1.24;79.54;94618.44;5113143;28;20051;-68
2023/02/10 10:45:30;;;;;;;36.80;16.23;;;;;;;-1.23;77.29;94615.03;5113298;28;20135;-68
2023/02/10 10:48:02;;;;;;;31.45;16.70;;;;;;;-1.05;79.70;94612.16;5113424;28;20453;-68
2023/02/10 10:50:28;;;;;;;29.10;15.40;;;;;;;-0.84;83.52;94601.50;5108523;28;20631;-68
2023/02/10 10:52:57;;;;;;;29.33;14.93;;;;;;;-0.77;75.89;94589.28;5111154;28;20047;-68
2023/02/10 10:55:32;;;;;;;37.38;17.65;;;;;;;-0.75;75.71;94602.63;5112443;28;20055;-68
2023/02/10 10:58:02;;;;;;;28.77;11.63;;;;;;;-0.62;82.08;94595.00;5112880;28;20089;-68
2023/02/10 11:00:29;;;;;;;17.48;8.85;;;;;;;-0.51;73.89;94595.06;5112490;28;20089;-68
2023/02/10 11:02:59;;;;;;;25.40;10.93;;;;;;;-0.50;70.19;94601.72;5113130;28;20423;-68
2023/02/10 11:05:30;;;;;;;20.10;10.27;;;;;;;-0.44;70.91;94595.44;5112134;28;20048;-68
2023/02/10 11:07:58;;;;;;;23.45;11.88;;;;;;;-0.26;77.98;94583.25;5112926;28;20441;-68
2023/02/10 11:10:31;;;;;;;31.10;15.15;;;;;;;-0.11;79.47;94581.34;5112111;28;20089;-68
2023/02/10 11:12:59;;;;;;;62.90;27.25;;;;;;;0.07;79.22;94584.28;5112339;28;20444;-68
2023/02/10 11:15:38;;;;;;;42.97;16.17;;;;;;;0.10;69.61;94585.78;5112324;28;20081;-68